< < Back
Terminal Aerodrome Forecast


Current Version              Previous Versions:   1  2  3  4  5  6  7  8  9  

Terminal Aerodrome Forecast

430
FTAK31 PAJN 230500
TAFAHN
TAF
PAHN 230530Z 2306/2406 VRB05KT P6SM VCSH OVC015
      TEMPO 2306/2310 09008G18KT 5SM -SHRA OVC009
     FM231900 12006KT P6SM VCSH SCT015 BKN025
     FM240000 12010KT 6SM -SHRA BR BKN015 OVC025
      AMD LTD TO CLD VIS AND WIND=

Latest METAR

668
SAUS70 KWBC 230600
MTRAHN
METAR KAHN 230551Z AUTO 07009KT 10SM OVC034 11/M03 A3022 RMK AO2
RAB04E13 SLP235 P0000 60000 T01061033 10106 20089 58021 $


USA.gov is the U.S. government's official web portal to all federal, state and local government web resources and services.